sensor_id;sensor_type;location;lat;lon;timestamp;pressure;altitude;pressure_sealevel;temperature;humidity
6778;BME280;3426;52.244;10.534;2023-01-31T00:02:11;100956.97;;;6.20;70.14
6778;BME280;3426;52.244;10.534;2023-01-31T00:04:41;100947.50;;;6.41;68.68
6778;BME280;3426;52.244;10.534;2023-01-31T00:07:10;100941.72;;;6.31;68.74
6778;BME280;3426;52.244;10.534;2023-01-31T00:09:42;100947.97;;;6.27;69.88
6778;BME280;3426;52.244;10.534;2023-01-31T00:12:50;100951.28;;;6.60;68.29
6778;BME280;3426;52.244;10.534;2023-01-31T00:15:51;100959.72;;;6.43;70.14
6778;BME280;3426;52.244;10.534;2023-01-31T00:18:33;100969.09;;;5.65;73.26
6778;BME280;3426;52.244;10.534;2023-01-31T00:21:50;100964.63;;;6.54;70.33
6778;BME280;3426;52.244;10.534;2023-01-31T00:24:43;100968.09;;;6.28;71.40
6778;BME280;3426;52.244;10.534;2023-01-31T00:27:12;100979.47;;;6.00;73.07
6778;BME280;3426;52.244;10.534;2023-01-31T00:29:41;100968.28;;;6.76;69.86
6778;BME280;3426;52.244;10.534;2023-01-31T00:32:11;100970.34;;;6.12;70.97
6778;BME280;3426;52.244;10.534;2023-01-31T00:34:40;100987.34;;;6.30;71.76
6778;BME280;3426;52.244;10.534;2023-01-31T00:37:13;100995.34;;;5.97;72.55
6778;BME280;3426;52.244;10.534;2023-01-31T00:39:42;100995.56;;;5.88;74.29
6778;BME280;3426;52.244;10.534;2023-01-31T00:42:11;100990.72;;;5.74;73.52
6778;BME280;3426;52.244;10.534;2023-01-31T00:44:41;101001.81;;;6.43;71.75
6778;BME280;3426;52.244;10.534;2023-01-31T00:47:10;101004.59;;;6.38;71.09
6778;BME280;3426;52.244;10.534;2023-01-31T00:49:43;100999.97;;;6.19;70.38
6778;BME280;3426;52.244;10.534;2023-01-31T00:52:13;100996.53;;;5.54;73.78
6778;BME280;3426;52.244;10.534;2023-01-31T00:58:50;100997.81;;;5.71;73.57
6778;BME280;3426;52.244;10.534;2023-01-31T01:01:37;101003.88;;;5.73;73.50
6778;BME280;3426;52.244;10.534;2023-01-31T01:04:04;101010.06;;;5.41;74.38
6778;BME280;3426;52.244;10.534;2023-01-31T01:07:13;101011.00;;;5.69;75.03
6778;BME280;3426;52.244;10.534;2023-01-31T01:09:42;101016.19;;;6.03;72.70
6778;BME280;3426;52.244;10.534;2023-01-31T01:12:09;101006.47;;;5.45;74.67
6778;BME280;3426;52.244;10.534;2023-01-31T01:14:35;101010.91;;;6.33;72.66
6778;BME280;3426;52.244;10.534;2023-01-31T01:17:05;101006.34;;;6.10;72.43
6778;BME280;3426;52.244;10.534;2023-01-31T01:19:40;101006.34;;;6.10;72.89
6778;BME280;3426;52.244;10.534;2023-01-31T01:22:16;101015.06;;;5.81;73.03
6778;BME280;3426;52.244;10.534;2023-01-31T01:24:42;101018.09;;;5.35;75.59
6778;BME280;3426;52.244;10.534;2023-01-31T01:27:12;101020.78;;;5.97;74.06
6778;BME280;3426;52.244;10.534;2023-01-31T01:29:41;101018.72;;;6.36;72.50
6778;BME280;3426;52.244;10.534;2023-01-31T01:32:11;101034.91;;;5.93;72.61
6778;BME280;3426;52.244;10.534;2023-01-31T01:34:40;101030.66;;;5.87;74.13
6778;BME280;3426;52.244;10.534;2023-01-31T01:37:13;101034.47;;;5.44;74.44
6778;BME280;3426;52.244;10.534;2023-01-31T01:40:03;101037.84;;;6.41;71.27
6778;BME280;3426;52.244;10.534;2023-01-31T01:42:39;101046.59;;;5.81;73.54
6778;BME280;3426;52.244;10.534;2023-01-31T01:47:48;101048.34;;;6.11;72.67
6778;BME280;3426;52.244;10.534;2023-01-31T01:50:21;101041.03;;;7.05;69.53
6778;BME280;3426;52.244;10.534;2023-01-31T01:55:26;101044.41;;;6.82;70.15
6778;BME280;3426;52.244;10.534;2023-01-31T01:57:59;101058.56;;;6.22;70.95
6778;BME280;3426;52.244;10.534;2023-01-31T02:00:28;101064.59;;;5.64;74.31
6778;BME280;3426;52.244;10.534;2023-01-31T02:02:58;101064.00;;;6.46;72.96
6778;BME280;3426;52.244;10.534;2023-01-31T02:05:31;101059.25;;;6.29;72.97
6778;BME280;3426;52.244;10.534;2023-01-31T02:07:59;101056.28;;;6.40;73.33
6778;BME280;3426;52.244;10.534;2023-01-31T02:10:30;101059.91;;;6.63;72.13
6778;BME280;3426;52.244;10.534;2023-01-31T02:12:58;101072.00;;;6.71;72.09
6778;BME280;3426;52.244;10.534;2023-01-31T02:15:25;101067.41;;;6.20;74.04
6778;BME280;3426;52.244;10.534;2023-01-31T02:17:52;101077.78;;;7.08;72.21
6778;BME280;3426;52.244;10.534;2023-01-31T02:29:24;101087.66;;;6.47;73.41
6778;BME280;3426;52.244;10.534;2023-01-31T02:34:50;101089.88;;;6.00;74.60
6778;BME280;3426;52.244;10.534;2023-01-31T02:37:28;101086.09;;;6.68;72.09
6778;BME280;3426;52.244;10.534;2023-01-31T02:45:51;101071.09;;;6.14;73.64
6778;BME280;3426;52.244;10.534;2023-01-31T02:53:47;101071.94;;;6.44;73.32
6778;BME280;3426;52.244;10.534;2023-01-31T02:56:21;101080.81;;;6.40;72.85
6778;BME280;3426;52.244;10.534;2023-01-31T03:01:31;101084.53;;;6.62;72.76
6778;BME280;3426;52.244;10.534;2023-01-31T03:04:05;101088.09;;;6.02;74.61
6778;BME280;3426;52.244;10.534;2023-01-31T03:11:51;101091.22;;;6.73;71.92
6778;BME280;3426;52.244;10.534;2023-01-31T03:14:29;101108.78;;;5.82;74.57
6778;BME280;3426;52.244;10.534;2023-01-31T03:20:09;101087.16;;;6.62;71.30
6778;BME280;3426;52.244;10.534;2023-01-31T03:22:47;101096.47;;;6.45;72.66
6778;BME280;3426;52.244;10.534;2023-01-31T03:25:19;101093.59;;;6.80;70.93
6778;BME280;3426;52.244;10.534;2023-01-31T03:27:51;101099.97;;;5.83;74.18
6778;BME280;3426;52.244;10.534;2023-01-31T03:30:40;101097.44;;;5.80;74.67
6778;BME280;3426;52.244;10.534;2023-01-31T03:35:51;101088.06;;;6.61;72.72
6778;BME280;3426;52.244;10.534;2023-01-31T03:38:28;101086.72;;;6.48;72.19
6778;BME280;3426;52.244;10.534;2023-01-31T03:41:17;101087.72;;;6.15;74.04
6778;BME280;3426;52.244;10.534;2023-01-31T03:44:12;101088.41;;;6.21;75.69
6778;BME280;3426;52.244;10.534;2023-01-31T03:46:46;101088.47;;;6.20;75.36
6778;BME280;3426;52.244;10.534;2023-01-31T03:49:18;101092.78;;;5.90;78.67
6778;BME280;3426;52.244;10.534;2023-01-31T03:51:51;101089.78;;;5.40;79.70
6778;BME280;3426;52.244;10.534;2023-01-31T03:54:25;101080.09;;;5.73;78.23
6778;BME280;3426;52.244;10.534;2023-01-31T03:59:22;101088.84;;;6.06;77.40
6778;BME280;3426;52.244;10.534;2023-01-31T04:01:54;101088.53;;;5.53;79.24
6778;BME280;3426;52.244;10.534;2023-01-31T04:04:34;101089.91;;;6.30;78.43
6778;BME280;3426;52.244;10.534;2023-01-31T04:07:02;101091.34;;;6.40;76.66
6778;BME280;3426;52.244;10.534;2023-01-31T04:09:30;101072.88;;;6.12;78.56
6778;BME280;3426;52.244;10.534;2023-01-31T04:11:59;101080.47;;;6.23;77.84
6778;BME280;3426;52.244;10.534;2023-01-31T04:14:26;101069.13;;;5.91;79.43
6778;BME280;3426;52.244;10.534;2023-01-31T04:16:53;101086.03;;;5.48;80.29
6778;BME280;3426;52.244;10.534;2023-01-31T04:19:19;101086.09;;;6.68;76.79
6778;BME280;3426;52.244;10.534;2023-01-31T04:21:46;101069.69;;;6.02;76.81
6778;BME280;3426;52.244;10.534;2023-01-31T04:24:12;101071.31;;;6.36;77.05
6778;BME280;3426;52.244;10.534;2023-01-31T04:26:39;101084.78;;;5.96;76.87
6778;BME280;3426;52.244;10.534;2023-01-31T04:29:05;101074.38;;;6.50;76.02
6778;BME280;3426;52.244;10.534;2023-01-31T04:31:32;101073.06;;;6.65;75.04
6778;BME280;3426;52.244;10.534;2023-01-31T04:33:58;101072.41;;;6.57;74.82
6778;BME280;3426;52.244;10.534;2023-01-31T04:36:25;101070.75;;;5.95;76.33
6778;BME280;3426;52.244;10.534;2023-01-31T04:38:51;101080.09;;;6.05;76.31
6778;BME280;3426;52.244;10.534;2023-01-31T04:41:18;101077.03;;;6.21;76.11
6778;BME280;3426;52.244;10.534;2023-01-31T04:43:44;101086.88;;;6.14;77.74
6778;BME280;3426;52.244;10.534;2023-01-31T04:46:11;101084.53;;;6.03;76.57
6778;BME280;3426;52.244;10.534;2023-01-31T04:48:37;101079.38;;;6.59;75.54
6778;BME280;3426;52.244;10.534;2023-01-31T04:51:06;101080.56;;;6.20;75.68
6778;BME280;3426;52.244;10.534;2023-01-31T04:53:32;101079.25;;;6.34;74.70
6778;BME280;3426;52.244;10.534;2023-01-31T04:55:59;101084.41;;;6.37;75.48
6778;BME280;3426;52.244;10.534;2023-01-31T04:58:25;101087.31;;;5.99;76.98
6778;BME280;3426;52.244;10.534;2023-01-31T05:00:53;101082.16;;;5.94;76.87
6778;BME280;3426;52.244;10.534;2023-01-31T05:03:19;101098.81;;;6.26;76.61
6778;BME280;3426;52.244;10.534;2023-01-31T05:05:49;101095.25;;;5.97;75.41
6778;BME280;3426;52.244;10.534;2023-01-31T05:08:16;101101.44;;;5.62;78.04
6778;BME280;3426;52.244;10.534;2023-01-31T05:10:42;101095.13;;;6.00;77.77
6778;BME280;3426;52.244;10.534;2023-01-31T05:13:10;101098.31;;;6.43;74.25
6778;BME280;3426;52.244;10.534;2023-01-31T05:15:36;101097.22;;;6.20;73.90
6778;BME280;3426;52.244;10.534;2023-01-31T05:18:03;101099.22;;;5.78;75.47
6778;BME280;3426;52.244;10.534;2023-01-31T05:20:32;101096.56;;;5.47;77.07
6778;BME280;3426;52.244;10.534;2023-01-31T05:23:01;101087.13;;;6.05;74.47
6778;BME280;3426;52.244;10.534;2023-01-31T05:25:28;101083.47;;;6.10;72.98
6778;BME280;3426;52.244;10.534;2023-01-31T05:27:54;101087.84;;;5.77;74.76
6778;BME280;3426;52.244;10.534;2023-01-31T05:30:21;101081.63;;;6.13;75.22
6778;BME280;3426;52.244;10.534;2023-01-31T05:32:49;101093.59;;;5.26;77.46
6778;BME280;3426;52.244;10.534;2023-01-31T05:35:16;101093.72;;;5.56;77.17
6778;BME280;3426;52.244;10.534;2023-01-31T05:37:44;101086.69;;;5.56;76.74
6778;BME280;3426;52.244;10.534;2023-01-31T05:40:13;101100.88;;;5.82;75.70
6778;BME280;3426;52.244;10.534;2023-01-31T05:42:40;101092.94;;;5.52;75.84
6778;BME280;3426;52.244;10.534;2023-01-31T05:45:09;101098.81;;;5.62;76.04
6778;BME280;3426;52.244;10.534;2023-01-31T05:47:36;101098.34;;;5.79;74.87
6778;BME280;3426;52.244;10.534;2023-01-31T05:50:03;101099.22;;;6.10;75.45
6778;BME280;3426;52.244;10.534;2023-01-31T05:52:30;101095.56;;;5.83;75.07
6778;BME280;3426;52.244;10.534;2023-01-31T05:54:56;101091.41;;;6.09;73.00
6778;BME280;3426;52.244;10.534;2023-01-31T05:57:23;101105.16;;;5.53;74.63
6778;BME280;3426;52.244;10.534;2023-01-31T05:59:49;101099.66;;;5.63;75.55
6778;BME280;3426;52.244;10.534;2023-01-31T06:02:16;101099.59;;;5.98;74.22
6778;BME280;3426;52.244;10.534;2023-01-31T06:04:42;101101.97;;;6.07;74.00
6778;BME280;3426;52.244;10.534;2023-01-31T06:07:09;101102.13;;;5.69;74.72
6778;BME280;3426;52.244;10.534;2023-01-31T06:09:35;101100.94;;;6.13;71.78
6778;BME280;3426;52.244;10.534;2023-01-31T06:12:04;101108.59;;;6.21;73.28
6778;BME280;3426;52.244;10.534;2023-01-31T06:14:31;101105.03;;;6.53;71.30
6778;BME280;3426;52.244;10.534;2023-01-31T06:16:58;101098.25;;;6.15;72.54
6778;BME280;3426;52.244;10.534;2023-01-31T06:19:24;101104.03;;;5.96;73.27
6778;BME280;3426;52.244;10.534;2023-01-31T06:21:51;101105.66;;;6.00;74.15
6778;BME280;3426;52.244;10.534;2023-01-31T06:24:17;101092.03;;;6.17;72.28
6778;BME280;3426;52.244;10.534;2023-01-31T06:26:44;101092.97;;;6.44;71.33
6778;BME280;3426;52.244;10.534;2023-01-31T06:29:10;101084.13;;;5.86;73.76
6778;BME280;3426;52.244;10.534;2023-01-31T06:31:37;101089.91;;;6.30;72.64
6778;BME280;3426;52.244;10.534;2023-01-31T06:34:03;101091.50;;;6.63;71.46
6778;BME280;3426;52.244;10.534;2023-01-31T06:36:31;101092.06;;;6.47;70.44
6778;BME280;3426;52.244;10.534;2023-01-31T06:38:59;101074.94;;;6.32;71.46
6778;BME280;3426;52.244;10.534;2023-01-31T06:41:25;101061.94;;;6.55;71.23
6778;BME280;3426;52.244;10.534;2023-01-31T06:43:52;101069.88;;;6.26;71.85
6778;BME280;3426;52.244;10.534;2023-01-31T06:46:18;101070.66;;;5.98;73.77
6778;BME280;3426;52.244;10.534;2023-01-31T06:48:45;101065.06;;;6.10;72.61
6778;BME280;3426;52.244;10.534;2023-01-31T06:51:12;101056.34;;;6.08;73.58
6778;BME280;3426;52.244;10.534;2023-01-31T06:53:38;101059.06;;;6.35;71.65
6778;BME280;3426;52.244;10.534;2023-01-31T06:56:06;101041.94;;;6.50;72.46
6778;BME280;3426;52.244;10.534;2023-01-31T06:58:32;101045.28;;;6.27;72.00
6778;BME280;3426;52.244;10.534;2023-01-31T07:01:11;101038.94;;;6.04;72.77
6778;BME280;3426;52.244;10.534;2023-01-31T07:03:38;101042.31;;;6.37;72.14
6778;BME280;3426;52.244;10.534;2023-01-31T07:06:05;101037.66;;;6.18;72.41
6778;BME280;3426;52.244;10.534;2023-01-31T07:08:32;101031.97;;;6.03;73.25
6778;BME280;3426;52.244;10.534;2023-01-31T07:11:01;101027.13;;;6.47;72.19
6778;BME280;3426;52.244;10.534;2023-01-31T07:13:29;101017.13;;;6.01;73.74
6778;BME280;3426;52.244;10.534;2023-01-31T07:15:56;101015.22;;;6.06;73.96
6778;BME280;3426;52.244;10.534;2023-01-31T07:18:23;101006.88;;;6.49;73.14
6778;BME280;3426;52.244;10.534;2023-01-31T07:20:49;101008.75;;;6.46;72.68
6778;BME280;3426;52.244;10.534;2023-01-31T07:23:16;101005.16;;;6.48;72.55
6778;BME280;3426;52.244;10.534;2023-01-31T07:25:43;101007.34;;;6.62;71.78
6778;BME280;3426;52.244;10.534;2023-01-31T07:28:10;100992.28;;;6.11;72.36
6778;BME280;3426;52.244;10.534;2023-01-31T07:30:37;100997.75;;;6.33;71.60
6778;BME280;3426;52.244;10.534;2023-01-31T07:33:05;100989.59;;;7.20;69.18
6778;BME280;3426;52.244;10.534;2023-01-31T07:35:31;100990.00;;;6.83;71.76
6778;BME280;3426;52.244;10.534;2023-01-31T07:37:58;100978.00;;;6.20;73.00
6778;BME280;3426;52.244;10.534;2023-01-31T07:40:25;100977.13;;;6.47;71.95
6778;BME280;3426;52.244;10.534;2023-01-31T07:42:56;100976.75;;;6.58;72.50
6778;BME280;3426;52.244;10.534;2023-01-31T07:45:23;100975.91;;;6.57;71.15
6778;BME280;3426;52.244;10.534;2023-01-31T07:47:50;100977.13;;;6.74;72.84
6778;BME280;3426;52.244;10.534;2023-01-31T07:50:17;100961.69;;;7.14;69.90
6778;BME280;3426;52.244;10.534;2023-01-31T07:52:44;100963.06;;;6.75;70.71
6778;BME280;3426;52.244;10.534;2023-01-31T07:55:10;100962.03;;;7.05;70.00
6778;BME280;3426;52.244;10.534;2023-01-31T07:57:36;100964.19;;;6.41;72.52
6778;BME280;3426;52.244;10.534;2023-01-31T08:00:03;100956.84;;;7.02;70.69
6778;BME280;3426;52.244;10.534;2023-01-31T08:02:50;100952.63;;;7.70;67.75
6778;BME280;3426;52.244;10.534;2023-01-31T08:05:35;100938.69;;;7.20;70.13
6778;BME280;3426;52.244;10.534;2023-01-31T08:08:02;100941.75;;;7.07;70.83
6778;BME280;3426;52.244;10.534;2023-01-31T08:10:36;100941.19;;;7.94;67.34
6778;BME280;3426;52.244;10.534;2023-01-31T08:13:02;100939.94;;;7.09;70.95
6778;BME280;3426;52.244;10.534;2023-01-31T08:15:29;100940.03;;;7.06;70.57
6778;BME280;3426;52.244;10.534;2023-01-31T08:17:55;100945.34;;;6.80;71.87
6778;BME280;3426;52.244;10.534;2023-01-31T08:20:22;100939.53;;;7.20;71.28
6778;BME280;3426;52.244;10.534;2023-01-31T08:22:48;100939.28;;;7.03;70.33
6778;BME280;3426;52.244;10.534;2023-01-31T08:25:15;100933.63;;;7.13;70.93
6778;BME280;3426;52.244;10.534;2023-01-31T08:27:44;100940.19;;;7.27;70.64
6778;BME280;3426;52.244;10.534;2023-01-31T08:30:12;100928.91;;;7.23;71.61
6778;BME280;3426;52.244;10.534;2023-01-31T08:32:38;100932.06;;;7.56;69.08
6778;BME280;3426;52.244;10.534;2023-01-31T08:35:05;100928.38;;;7.37;70.07
6778;BME280;3426;52.244;10.534;2023-01-31T08:37:33;100927.47;;;7.85;69.77
6778;BME280;3426;52.244;10.534;2023-01-31T08:39:59;100916.41;;;7.75;69.20
6778;BME280;3426;52.244;10.534;2023-01-31T08:42:26;100924.50;;;7.70;69.59
6778;BME280;3426;52.244;10.534;2023-01-31T08:44:52;100916.75;;;7.19;70.23
6778;BME280;3426;52.244;10.534;2023-01-31T08:47:19;100907.16;;;7.41;69.61
6778;BME280;3426;52.244;10.534;2023-01-31T08:49:45;100912.81;;;7.54;70.68
6778;BME280;3426;52.244;10.534;2023-01-31T08:52:12;100898.06;;;8.17;69.11
6778;BME280;3426;52.244;10.534;2023-01-31T08:54:38;100908.56;;;7.74;68.62
6778;BME280;3426;52.244;10.534;2023-01-31T08:57:05;100892.78;;;8.17;67.40
6778;BME280;3426;52.244;10.534;2023-01-31T08:59:31;100895.41;;;8.82;66.69
6778;BME280;3426;52.244;10.534;2023-01-31T09:01:58;100886.97;;;9.13;64.50
6778;BME280;3426;52.244;10.534;2023-01-31T09:04:24;100889.88;;;9.07;64.66
6778;BME280;3426;52.244;10.534;2023-01-31T09:06:51;100874.59;;;9.52;63.58
6778;BME280;3426;52.244;10.534;2023-01-31T09:09:17;100875.53;;;9.33;64.87
6778;BME280;3426;52.244;10.534;2023-01-31T09:11:44;100872.69;;;9.56;63.39
6778;BME280;3426;52.244;10.534;2023-01-31T09:14:10;100871.09;;;8.73;66.05
6778;BME280;3426;52.244;10.534;2023-01-31T09:16:37;100875.19;;;8.40;66.79
6778;BME280;3426;52.244;10.534;2023-01-31T09:19:04;100857.63;;;8.59;66.32
6778;BME280;3426;52.244;10.534;2023-01-31T09:21:31;100851.56;;;8.57;65.92
6778;BME280;3426;52.244;10.534;2023-01-31T09:23:59;100869.09;;;8.99;63.84
6778;BME280;3426;52.244;10.534;2023-01-31T09:26:27;100868.72;;;8.88;64.71
6778;BME280;3426;52.244;10.534;2023-01-31T09:28:55;100856.38;;;9.46;62.90
6778;BME280;3426;52.244;10.534;2023-01-31T09:31:23;100860.91;;;9.05;64.28
6778;BME280;3426;52.244;10.534;2023-01-31T09:33:50;100845.84;;;9.07;63.09
6778;BME280;3426;52.244;10.534;2023-01-31T09:36:18;100836.72;;;8.33;66.29
6778;BME280;3426;52.244;10.534;2023-01-31T09:38:46;100829.78;;;8.52;65.57
6778;BME280;3426;52.244;10.534;2023-01-31T09:44:06;100833.88;;;8.59;64.01
6778;BME280;3426;52.244;10.534;2023-01-31T09:46:40;100838.81;;;8.67;64.57
6778;BME280;3426;52.244;10.534;2023-01-31T09:49:15;100838.41;;;8.56;64.31
6778;BME280;3426;52.244;10.534;2023-01-31T09:51:45;100836.81;;;9.32;61.81
6778;BME280;3426;52.244;10.534;2023-01-31T09:54:19;100840.09;;;8.58;63.44
6778;BME280;3426;52.244;10.534;2023-01-31T09:56:57;100823.19;;;8.42;65.13
6778;BME280;3426;52.244;10.534;2023-01-31T10:13:03;100809.31;;;8.77;63.43
6778;BME280;3426;52.244;10.534;2023-01-31T10:15:42;100801.56;;;8.12;65.69
6778;BME280;3426;52.244;10.534;2023-01-31T10:18:31;100792.28;;;8.64;66.13
6778;BME280;3426;52.244;10.534;2023-01-31T10:21:05;100789.34;;;8.09;68.58
6778;BME280;3426;52.244;10.534;2023-01-31T10:23:57;100785.63;;;8.35;68.22
6778;BME280;3426;52.244;10.534;2023-01-31T10:26:31;100804.41;;;7.63;72.29
6778;BME280;3426;52.244;10.534;2023-01-31T10:29:04;100799.81;;;7.68;74.20
6778;BME280;3426;52.244;10.534;2023-01-31T10:32:01;100804.56;;;8.03;75.16
6778;BME280;3426;52.244;10.534;2023-01-31T10:34:40;100790.72;;;7.54;76.49
6778;BME280;3426;52.244;10.534;2023-01-31T10:37:29;100801.84;;;8.04;75.89
6778;BME280;3426;52.244;10.534;2023-01-31T10:40:02;100799.06;;;7.87;76.93
6778;BME280;3426;52.244;10.534;2023-01-31T10:42:35;100787.66;;;7.86;76.56
6778;BME280;3426;52.244;10.534;2023-01-31T10:47:36;100773.66;;;6.95;78.52
6778;BME280;3426;52.244;10.534;2023-01-31T10:50:18;100762.72;;;7.29;76.85
6778;BME280;3426;52.244;10.534;2023-01-31T10:58:25;100749.63;;;7.92;74.06
6778;BME280;3426;52.244;10.534;2023-01-31T11:00:52;100748.59;;;8.16;72.96
6778;BME280;3426;52.244;10.534;2023-01-31T11:03:18;100734.31;;;7.14;76.35
6778;BME280;3426;52.244;10.534;2023-01-31T11:05:49;100737.72;;;7.61;75.85
6778;BME280;3426;52.244;10.534;2023-01-31T11:11:13;100700.97;;;6.91;76.69
6778;BME280;3426;52.244;10.534;2023-01-31T11:14:01;100700.50;;;7.69;74.91
6778;BME280;3426;52.244;10.534;2023-01-31T11:16:38;100685.38;;;6.63;77.11
6778;BME280;3426;52.244;10.534;2023-01-31T11:19:18;100678.56;;;7.03;77.74
6778;BME280;3426;52.244;10.534;2023-01-31T11:21:50;100676.34;;;7.15;76.26
6778;BME280;3426;52.244;10.534;2023-01-31T11:24:26;100664.59;;;7.66;74.62
6778;BME280;3426;52.244;10.534;2023-01-31T11:29:39;100645.50;;;8.21;71.79
6778;BME280;3426;52.244;10.534;2023-01-31T11:32:19;100638.69;;;7.96;73.27
6778;BME280;3426;52.244;10.534;2023-01-31T11:35:21;100647.41;;;7.36;75.29
6778;BME280;3426;52.244;10.534;2023-01-31T11:37:52;100635.16;;;8.16;71.82
6778;BME280;3426;52.244;10.534;2023-01-31T11:40:32;100643.06;;;7.35;74.89
6778;BME280;3426;52.244;10.534;2023-01-31T11:45:44;100631.63;;;7.97;72.99
6778;BME280;3426;52.244;10.534;2023-01-31T11:50:59;100625.19;;;7.84;72.33
6778;BME280;3426;52.244;10.534;2023-01-31T11:56:16;100607.50;;;7.65;73.13
6778;BME280;3426;52.244;10.534;2023-01-31T11:58:45;100615.75;;;7.78;73.30
6778;BME280;3426;52.244;10.534;2023-01-31T12:01:16;100607.44;;;7.87;73.80
6778;BME280;3426;52.244;10.534;2023-01-31T12:04:03;100618.31;;;7.80;74.39
6778;BME280;3426;52.244;10.534;2023-01-31T12:06:36;100605.13;;;8.39;73.42
6778;BME280;3426;52.244;10.534;2023-01-31T12:09:25;100601.69;;;7.37;76.33
6778;BME280;3426;52.244;10.534;2023-01-31T12:11:55;100605.22;;;7.78;76.52
6778;BME280;3426;52.244;10.534;2023-01-31T12:14:23;100586.28;;;7.68;76.26
6778;BME280;3426;52.244;10.534;2023-01-31T12:16:53;100583.38;;;7.75;77.06
6778;BME280;3426;52.244;10.534;2023-01-31T12:22:09;100576.66;;;7.47;78.31
6778;BME280;3426;52.244;10.534;2023-01-31T12:33:19;100569.75;;;7.65;76.75
6778;BME280;3426;52.244;10.534;2023-01-31T12:46:24;100560.72;;;7.50;78.69
6778;BME280;3426;52.244;10.534;2023-01-31T13:06:09;100550.16;;;7.91;79.00
6778;BME280;3426;52.244;10.534;2023-01-31T13:08:52;100538.13;;;7.44;79.60
6778;BME280;3426;52.244;10.534;2023-01-31T13:11:53;100560.72;;;7.50;81.90
6778;BME280;3426;52.244;10.534;2023-01-31T13:14:23;100559.94;;;8.08;78.81
6778;BME280;3426;52.244;10.534;2023-01-31T13:16:54;100561.94;;;8.03;78.03
6778;BME280;3426;52.244;10.534;2023-01-31T13:19:40;100571.44;;;7.86;79.84
6778;BME280;3426;52.244;10.534;2023-01-31T13:22:17;100559.38;;;8.20;79.97
6778;BME280;3426;52.244;10.534;2023-01-31T13:24:49;100570.31;;;7.92;78.57
6778;BME280;3426;52.244;10.534;2023-01-31T13:27:37;100560.06;;;7.45;80.91
6778;BME280;3426;52.244;10.534;2023-01-31T13:32:44;100561.16;;;7.80;82.40
6778;BME280;3426;52.244;10.534;2023-01-31T13:35:36;100574.16;;;7.85;81.29
6778;BME280;3426;52.244;10.534;2023-01-31T13:38:07;100562.13;;;7.98;81.33
6778;BME280;3426;52.244;10.534;2023-01-31T13:40:47;100559.94;;;7.68;82.92
6778;BME280;3426;52.244;10.534;2023-01-31T13:43:18;100564.72;;;7.79;83.28
6778;BME280;3426;52.244;10.534;2023-01-31T13:45:48;100569.25;;;7.96;82.23
6778;BME280;3426;52.244;10.534;2023-01-31T13:55:43;100582.19;;;7.41;86.07
6778;BME280;3426;52.244;10.534;2023-01-31T13:58:31;100561.22;;;7.17;85.13
6778;BME280;3426;52.244;10.534;2023-01-31T14:01:21;100559.50;;;6.52;87.16
6778;BME280;3426;52.244;10.534;2023-01-31T14:07:16;100553.22;;;7.41;85.03
6778;BME280;3426;52.244;10.534;2023-01-31T14:42:07;100536.69;;;7.37;84.01
6778;BME280;3426;52.244;10.534;2023-01-31T14:50:29;100531.94;;;7.66;83.90
6778;BME280;3426;52.244;10.534;2023-01-31T14:58:45;100525.91;;;7.43;83.44
6778;BME280;3426;52.244;10.534;2023-01-31T15:01:13;100523.31;;;7.42;83.11
6778;BME280;3426;52.244;10.534;2023-01-31T15:03:53;100521.13;;;7.91;81.65
6778;BME280;3426;52.244;10.534;2023-01-31T15:06:30;100517.84;;;7.86;81.80
6778;BME280;3426;52.244;10.534;2023-01-31T15:11:46;100514.84;;;7.75;81.56
6778;BME280;3426;52.244;10.534;2023-01-31T15:14:30;100510.16;;;7.81;82.57
6778;BME280;3426;52.244;10.534;2023-01-31T15:17:12;100506.63;;;8.01;80.02
6778;BME280;3426;52.244;10.534;2023-01-31T15:20:15;100518.53;;;7.70;80.81
6778;BME280;3426;52.244;10.534;2023-01-31T15:22:43;100504.75;;;7.84;80.40
6778;BME280;3426;52.244;10.534;2023-01-31T15:25:31;100511.94;;;8.00;81.00
6778;BME280;3426;52.244;10.534;2023-01-31T15:27:59;100506.25;;;7.90;80.57
6778;BME280;3426;52.244;10.534;2023-01-31T15:30:27;100513.50;;;8.04;80.56
6778;BME280;3426;52.244;10.534;2023-01-31T15:33:04;100507.34;;;7.65;80.28
6778;BME280;3426;52.244;10.534;2023-01-31T15:43:32;100514.66;;;7.98;80.36
6778;BME280;3426;52.244;10.534;2023-01-31T15:48:47;100530.56;;;8.15;78.54
6778;BME280;3426;52.244;10.534;2023-01-31T15:51:14;100519.88;;;8.56;78.67
6778;BME280;3426;52.244;10.534;2023-01-31T15:53:41;100509.53;;;8.33;78.32
6778;BME280;3426;52.244;10.534;2023-01-31T15:56:19;100492.41;;;7.85;80.37
6778;BME280;3426;52.244;10.534;2023-01-31T15:58:49;100508.34;;;8.40;79.88
6778;BME280;3426;52.244;10.534;2023-01-31T16:01:16;100514.88;;;8.50;79.37
6778;BME280;3426;52.244;10.534;2023-01-31T16:03:51;100495.91;;;8.04;79.74
6778;BME280;3426;52.244;10.534;2023-01-31T16:06:30;100508.53;;;8.54;78.83
6778;BME280;3426;52.244;10.534;2023-01-31T16:08:59;100495.50;;;8.13;79.13
6778;BME280;3426;52.244;10.534;2023-01-31T16:11:29;100504.03;;;8.56;78.97
6778;BME280;3426;52.244;10.534;2023-01-31T16:14:01;100501.63;;;8.14;79.35
6778;BME280;3426;52.244;10.534;2023-01-31T16:16:28;100506.13;;;8.49;79.67
6778;BME280;3426;52.244;10.534;2023-01-31T16:18:58;100513.69;;;8.01;81.72
6778;BME280;3426;52.244;10.534;2023-01-31T16:26:37;100515.25;;;8.23;80.02
6778;BME280;3426;52.244;10.534;2023-01-31T16:29:11;100500.88;;;8.67;80.38
6778;BME280;3426;52.244;10.534;2023-01-31T16:31:47;100491.22;;;8.30;80.62
6778;BME280;3426;52.244;10.534;2023-01-31T16:34:26;100505.47;;;8.63;78.89
6778;BME280;3426;52.244;10.534;2023-01-31T16:37:06;100498.13;;;8.13;80.28
6778;BME280;3426;52.244;10.534;2023-01-31T16:42:21;100494.78;;;8.47;79.29
6778;BME280;3426;52.244;10.534;2023-01-31T16:44:49;100499.00;;;7.95;82.18
6778;BME280;3426;52.244;10.534;2023-01-31T16:52:43;100513.31;;;8.65;81.38
6778;BME280;3426;52.244;10.534;2023-01-31T16:55:21;100524.53;;;8.51;81.99
6778;BME280;3426;52.244;10.534;2023-01-31T16:57:49;100533.16;;;8.17;83.21
6778;BME280;3426;52.244;10.534;2023-01-31T17:02:54;100548.06;;;8.37;82.55
6778;BME280;3426;52.244;10.534;2023-01-31T17:05:27;100551.91;;;7.72;85.01
6778;BME280;3426;52.244;10.534;2023-01-31T17:07:56;100549.03;;;8.15;85.18